Time;durP1;ratioP1;P1;durP2;ratioP2;P2;SDS_P1;SDS_P2;PMS_P1;PMS_P2;Temp;Humidity;BMP_temperature;BMP_pressure;BME280_temperature;BME280_humidity;BME280_pressure;Samples;Min_cycle;Max_cycle;Signal;HPM_P1;HPM_P2
2023/08/28 00:00:27;;;;;;;0.00;0.00;;;21.40;99.90;;;;;;5024227;28;20021;-64
2023/08/28 00:02:54;;;;;;;;;;;21.40;99.90;;;;;;5023839;28;20550;-65
2023/08/28 00:05:20;;;;;;;0.00;0.00;;;21.30;99.90;;;;;;5025307;28;19912;-64
2023/08/28 00:07:45;;;;;;;0.00;0.00;;;21.40;99.90;;;;;;5023436;28;20029;-63
2023/08/28 00:10:11;;;;;;;0.00;0.00;;;21.40;99.90;;;;;;5014667;28;20185;-63
2023/08/28 00:12:40;;;;;;;0.00;0.00;;;21.30;99.90;;;;;;5022412;28;20025;-63
2023/08/28 00:15:07;;;;;;;0.00;0.00;;;21.40;99.90;;;;;;5019928;28;20690;-64
2023/08/28 00:17:33;;;;;;;0.00;0.00;;;21.30;99.90;;;;;;5025812;28;20055;-63
2023/08/28 00:19:58;;;;;;;0.00;0.00;;;21.40;99.90;;;;;;5026897;28;20037;-63
2023/08/28 00:22:24;;;;;;;0.00;0.00;;;21.30;99.90;;;;;;5030896;28;20036;-64
2023/08/28 00:24:50;;;;;;;0.00;0.00;;;21.30;99.90;;;;;;5024211;28;20331;-63
2023/08/28 00:27:15;;;;;;;0.00;0.00;;;21.30;99.90;;;;;;5024396;28;20064;-64
2023/08/28 00:29:41;;;;;;;0.00;0.00;;;21.40;99.90;;;;;;5028649;28;20029;-64
2023/08/28 00:32:07;;;;;;;0.00;0.00;;;21.40;99.90;;;;;;5021144;28;20025;-63
2023/08/28 00:34:32;;;;;;;0.00;0.00;;;21.40;99.90;;;;;;5027474;28;20035;-64
2023/08/28 00:36:58;;;;;;;0.00;0.00;;;21.40;99.90;;;;;;5027118;28;20574;-63
2023/08/28 00:39:24;;;;;;;0.00;0.00;;;21.50;99.90;;;;;;5029830;28;20088;-64
2023/08/28 00:41:49;;;;;;;0.00;0.00;;;21.40;99.90;;;;;;5022729;28;20049;-64
2023/08/28 00:44:15;;;;;;;0.00;0.00;;;21.40;99.90;;;;;;5024836;28;20060;-63
2023/08/28 00:46:41;;;;;;;0.00;0.00;;;21.40;99.90;;;;;;5029008;28;20036;-64
2023/08/28 00:49:08;;;;;;;0.00;0.00;;;21.30;99.90;;;;;;5027101;28;20096;-64
2023/08/28 00:51:33;;;;;;;0.00;0.00;;;21.40;99.90;;;;;;5026367;28;20131;-64
2023/08/28 00:54:01;;;;;;;0.00;0.00;;;21.40;99.90;;;;;;5026905;28;20415;-63
2023/08/28 00:56:27;;;;;;;0.00;0.00;;;21.40;99.90;;;;;;5028405;28;20725;-63
2023/08/28 00:58:53;;;;;;;;;;;21.30;99.90;;;;;;5027164;28;20374;-63
2023/08/28 01:01:18;;;;;;;0.00;0.00;;;21.30;99.90;;;;;;5025855;28;19916;-63
2023/08/28 01:03:44;;;;;;;0.00;0.00;;;21.30;99.90;;;;;;5026063;28;20555;-63
2023/08/28 01:06:21;;;;;;;0.00;0.00;;;21.20;99.90;;;;;;5025800;28;20037;-64
2023/08/28 01:09:14;;;;;;;0.00;0.00;;;21.20;99.90;;;;;;5023797;28;20032;-64
2023/08/28 01:11:53;;;;;;;0.00;0.00;;;21.20;99.90;;;;;;5017583;28;20538;-64
2023/08/28 01:14:27;;;;;;;0.00;0.00;;;21.20;99.90;;;;;;5023880;28;20020;-64
2023/08/28 01:16:57;;;;;;;0.00;0.00;;;21.20;99.90;;;;;;5027447;28;20025;-65
2023/08/28 01:19:36;;;;;;;0.00;0.00;;;21.30;99.90;;;;;;5024753;28;20025;-65
2023/08/28 01:22:18;;;;;;;0.00;0.00;;;21.30;99.90;;;;;;5022020;28;20147;-64
2023/08/28 01:24:49;;;;;;;0.00;0.00;;;21.20;99.90;;;;;;5019356;28;20044;-63
2023/08/28 01:27:16;;;;;;;0.00;0.00;;;21.20;99.90;;;;;;5027716;28;20627;-64
2023/08/28 01:29:42;;;;;;;0.00;0.00;;;21.30;99.90;;;;;;5020215;28;20033;-65
2023/08/28 01:32:07;;;;;;;0.63;0.10;;;21.30;99.90;;;;;;5027613;28;20025;-63
2023/08/28 01:34:34;;;;;;;0.00;0.00;;;21.30;99.90;;;;;;5026386;28;20028;-63
2023/08/28 01:37:10;;;;;;;0.00;0.00;;;21.30;99.90;;;;;;5025123;28;20033;-63
2023/08/28 01:39:42;;;;;;;0.00;0.00;;;21.20;99.90;;;;;;5017961;28;20490;-64
2023/08/28 01:42:09;;;;;;;0.00;0.00;;;21.20;99.90;;;;;;5020428;28;20537;-63
2023/08/28 01:44:36;;;;;;;0.00;0.00;;;21.20;99.90;;;;;;5024497;28;20025;-63
2023/08/28 01:47:03;;;;;;;0.00;0.00;;;21.10;99.90;;;;;;5023508;28;20029;-63
2023/08/28 01:49:29;;;;;;;0.00;0.00;;;21.10;99.90;;;;;;5027246;28;20226;-63
2023/08/28 01:51:55;;;;;;;0.00;0.00;;;21.10;99.90;;;;;;5022791;28;20025;-64
2023/08/28 01:54:22;;;;;;;;;;;21.10;99.90;;;;;;5022963;28;20604;-64
2023/08/28 01:56:48;;;;;;;0.00;0.00;;;21.00;99.90;;;;;;5025795;28;19992;-64
2023/08/28 01:59:14;;;;;;;0.00;0.00;;;21.00;99.90;;;;;;5025698;28;20035;-64
2023/08/28 02:01:40;;;;;;;;;;;21.00;99.90;;;;;;5022173;28;20440;-64
2023/08/28 02:04:05;;;;;;;0.00;0.00;;;21.10;99.90;;;;;;5027084;28;19932;-63
2023/08/28 02:06:31;;;;;;;0.00;0.00;;;21.10;99.90;;;;;;5021463;28;20041;-64
2023/08/28 02:08:57;;;;;;;0.00;0.00;;;21.10;99.90;;;;;;5025780;28;20041;-63
2023/08/28 02:11:22;;;;;;;0.00;0.00;;;21.10;99.90;;;;;;5020252;28;20021;-63
2023/08/28 02:13:48;;;;;;;0.05;0.05;;;21.10;99.90;;;;;;5021373;28;20026;-64
2023/08/28 02:16:19;;;;;;;0.00;0.00;;;21.10;99.90;;;;;;5019955;28;20026;-63
2023/08/28 02:18:45;;;;;;;0.00;0.00;;;21.00;99.90;;;;;;5020577;28;20564;-64
2023/08/28 02:21:10;;;;;;;0.00;0.00;;;21.00;99.90;;;;;;5024745;28;20028;-63
2023/08/28 02:23:36;;;;;;;0.00;0.00;;;21.00;99.90;;;;;;5026299;28;20025;-63
2023/08/28 02:26:02;;;;;;;0.00;0.00;;;20.90;99.90;;;;;;5028198;28;20192;-63
2023/08/28 02:28:27;;;;;;;0.00;0.00;;;21.00;99.90;;;;;;5024711;28;20440;-63
2023/08/28 02:30:53;;;;;;;0.00;0.00;;;21.00;99.90;;;;;;5027211;28;20049;-63
2023/08/28 02:33:18;;;;;;;0.00;0.00;;;21.00;99.90;;;;;;5022865;28;20025;-63
2023/08/28 02:35:44;;;;;;;0.00;0.00;;;21.00;99.90;;;;;;5018280;28;20064;-64
2023/08/28 02:38:11;;;;;;;0.00;0.00;;;20.90;99.90;;;;;;5022960;28;20052;-64
2023/08/28 02:40:38;;;;;;;0.03;0.03;;;21.00;99.90;;;;;;5021577;28;20461;-64
2023/08/28 02:43:09;;;;;;;0.00;0.00;;;21.00;99.90;;;;;;5019512;28;20100;-63
2023/08/28 02:45:36;;;;;;;0.00;0.00;;;21.00;99.90;;;;;;5022785;28;20028;-63
2023/08/28 02:48:03;;;;;;;0.00;0.00;;;20.90;99.90;;;;;;5026562;28;20130;-63
2023/08/28 02:50:29;;;;;;;0.00;0.00;;;20.90;99.90;;;;;;5018229;28;20112;-63
2023/08/28 02:52:55;;;;;;;0.00;0.00;;;20.90;99.90;;;;;;5022940;28;20531;-63
2023/08/28 02:55:22;;;;;;;0.00;0.00;;;20.80;99.90;;;;;;5024815;28;20144;-63
2023/08/28 02:57:48;;;;;;;0.00;0.00;;;20.90;99.90;;;;;;5023061;28;20037;-64
2023/08/28 03:00:14;;;;;;;0.00;0.00;;;20.90;99.90;;;;;;5018752;28;21332;-64
2023/08/28 03:02:39;;;;;;;0.00;0.00;;;20.90;99.90;;;;;;5026600;28;20033;-63
2023/08/28 03:05:06;;;;;;;0.00;0.00;;;20.90;99.90;;;;;;5025024;28;20028;-62
2023/08/28 03:07:31;;;;;;;;;;;20.90;99.90;;;;;;5022827;28;20037;-64
2023/08/28 03:09:57;;;;;;;0.00;0.00;;;20.90;99.90;;;;;;5029302;28;19919;-64
2023/08/28 03:12:22;;;;;;;0.00;0.00;;;20.90;99.90;;;;;;5022092;28;20100;-63
2023/08/28 03:14:48;;;;;;;0.00;0.00;;;20.80;99.90;;;;;;5026378;28;20026;-63
2023/08/28 03:17:14;;;;;;;0.00;0.00;;;20.80;99.90;;;;;;5022465;28;20029;-64
2023/08/28 03:19:40;;;;;;;0.00;0.00;;;20.70;99.90;;;;;;5023757;28;20128;-64
2023/08/28 03:22:05;;;;;;;0.00;0.00;;;20.70;99.90;;;;;;5020331;28;20215;-64
2023/08/28 03:24:31;;;;;;;0.00;0.00;;;20.70;99.90;;;;;;5023237;28;20132;-64
2023/08/28 03:26:57;;;;;;;0.00;0.00;;;20.70;99.90;;;;;;5026889;28;20025;-63
2023/08/28 03:29:23;;;;;;;0.00;0.00;;;20.70;99.90;;;;;;5029019;28;20588;-63
2023/08/28 03:31:49;;;;;;;0.00;0.00;;;20.70;99.90;;;;;;5021952;28;20045;-63
2023/08/28 03:34:15;;;;;;;0.00;0.00;;;20.60;99.90;;;;;;5022704;28;20063;-63
2023/08/28 03:36:41;;;;;;;0.00;0.00;;;20.60;99.90;;;;;;5021397;28;20033;-64
2023/08/28 03:39:07;;;;;;;0.00;0.00;;;20.70;99.90;;;;;;5023463;28;20021;-63
2023/08/28 03:41:33;;;;;;;0.00;0.00;;;20.60;99.90;;;;;;5026883;28;20578;-63
2023/08/28 03:43:59;;;;;;;0.00;0.00;;;20.60;99.90;;;;;;5018907;28;20029;-64
2023/08/28 03:46:24;;;;;;;0.00;0.00;;;20.70;99.90;;;;;;5021577;28;20072;-64
2023/08/28 03:48:50;;;;;;;0.00;0.00;;;20.70;99.90;;;;;;5022871;28;20108;-64
2023/08/28 03:51:16;;;;;;;0.00;0.00;;;20.70;99.90;;;;;;5027248;28;20053;-63
2023/08/28 03:53:42;;;;;;;0.00;0.00;;;20.70;99.90;;;;;;5024803;28;20025;-64
2023/08/28 03:56:07;;;;;;;;;;;20.30;99.90;;;;;;5017439;28;20026;-65
2023/08/28 03:58:33;;;;;;;0.00;0.00;;;19.90;99.90;;;;;;5030781;28;19970;-64
2023/08/28 04:00:59;;;;;;;0.00;0.00;;;19.70;99.90;;;;;;5026480;28;20022;-64
2023/08/28 04:03:25;;;;;;;0.00;0.00;;;19.60;99.90;;;;;;5024351;28;20060;-62
2023/08/28 04:05:52;;;;;;;;;;;19.60;99.90;;;;;;5023749;28;20377;-64
2023/08/28 04:08:19;;;;;;;0.00;0.00;;;19.80;99.90;;;;;;5026447;28;19941;-63
2023/08/28 04:10:45;;;;;;;0.00;0.00;;;19.90;99.90;;;;;;5027068;28;20768;-62
2023/08/28 04:13:11;;;;;;;0.00;0.00;;;20.00;99.90;;;;;;5025093;28;20121;-63
2023/08/28 04:15:39;;;;;;;;;;;20.10;99.90;;;;;;5024176;28;20029;-62
2023/08/28 04:18:05;;;;;;;0.00;0.00;;;20.10;99.90;;;;;;5024312;28;19935;-62
2023/08/28 04:20:31;;;;;;;0.00;0.00;;;20.10;99.90;;;;;;5018965;28;20047;-62
2023/08/28 04:22:56;;;;;;;0.00;0.00;;;20.20;99.90;;;;;;5023054;28;20029;-62
2023/08/28 04:25:22;;;;;;;0.10;0.10;;;20.20;99.90;;;;;;5029267;28;20091;-62
2023/08/28 04:27:47;;;;;;;0.00;0.00;;;20.20;99.90;;;;;;5022374;28;20033;-62
2023/08/28 04:30:13;;;;;;;0.00;0.00;;;20.20;99.90;;;;;;5024331;28;20044;-62
2023/08/28 04:32:39;;;;;;;0.00;0.00;;;20.30;99.90;;;;;;5020411;28;20044;-62
2023/08/28 04:35:06;;;;;;;0.00;0.00;;;20.30;99.90;;;;;;5021530;28;20029;-61
2023/08/28 04:37:32;;;;;;;0.00;0.00;;;20.20;99.90;;;;;;5017884;28;20034;-67
2023/08/28 04:39:58;;;;;;;0.00;0.00;;;20.20;99.90;;;;;;5021454;28;20534;-67
2023/08/28 04:42:24;;;;;;;0.00;0.00;;;20.20;99.90;;;;;;5025239;28;20034;-67
2023/08/28 04:44:50;;;;;;;0.00;0.00;;;20.10;99.90;;;;;;5026549;28;20029;-67
2023/08/28 04:47:15;;;;;;;0.00;0.00;;;20.10;99.90;;;;;;5022868;28;20030;-67
2023/08/28 04:49:41;;;;;;;0.00;0.00;;;20.00;99.90;;;;;;5024370;28;20020;-68
2023/08/28 04:52:07;;;;;;;0.00;0.00;;;19.90;99.90;;;;;;5018255;28;20569;-67
2023/08/28 04:54:33;;;;;;;0.00;0.00;;;19.80;99.90;;;;;;5024061;28;20022;-67
2023/08/28 04:57:00;;;;;;;0.00;0.00;;;19.80;99.90;;;;;;5018157;28;20774;-67
2023/08/28 04:59:25;;;;;;;;;;;19.90;99.90;;;;;;5024727;28;20018;-68
2023/08/28 05:01:51;;;;;;;0.00;0.00;;;19.80;99.90;;;;;;5024508;28;19931;-65
2023/08/28 05:04:17;;;;;;;0.00;0.00;;;19.90;99.90;;;;;;5022252;28;20078;-65
2023/08/28 05:06:42;;;;;;;0.00;0.00;;;19.90;99.90;;;;;;5027135;28;20060;-65
2023/08/28 05:09:10;;;;;;;0.00;0.00;;;19.80;99.90;;;;;;5020757;28;20037;-67
2023/08/28 05:11:36;;;;;;;0.00;0.00;;;19.80;99.90;;;;;;5018606;28;20021;-68
2023/08/28 05:14:01;;;;;;;0.00;0.00;;;19.90;99.90;;;;;;5020114;28;20534;-68
2023/08/28 05:16:27;;;;;;;0.00;0.00;;;19.90;99.90;;;;;;5026984;28;20675;-68
2023/08/28 05:18:53;;;;;;;0.00;0.00;;;20.00;99.90;;;;;;5019985;28;20038;-67
2023/08/28 05:21:18;;;;;;;0.00;0.00;;;20.10;99.90;;;;;;5022173;28;20024;-67
2023/08/28 05:23:44;;;;;;;0.00;0.00;;;20.10;99.90;;;;;;5019746;28;20030;-67
2023/08/28 05:26:10;;;;;;;0.05;0.05;;;20.10;99.90;;;;;;5024733;28;20056;-68
2023/08/28 05:28:37;;;;;;;0.10;0.00;;;20.20;99.90;;;;;;5023483;28;20029;-64
2023/08/28 05:31:03;;;;;;;0.10;0.10;;;20.20;99.90;;;;;;5023573;28;20566;-64
2023/08/28 05:33:30;;;;;;;0.00;0.00;;;20.30;99.90;;;;;;5024880;28;20053;-65
2023/08/28 05:35:56;;;;;;;0.00;0.00;;;20.40;99.90;;;;;;5022262;28;20033;-65
2023/08/28 05:38:21;;;;;;;0.00;0.00;;;20.40;99.90;;;;;;5025640;28;20460;-63
2023/08/28 05:40:47;;;;;;;0.00;0.00;;;20.50;99.90;;;;;;5023968;28;20029;-65
2023/08/28 05:43:13;;;;;;;0.00;0.00;;;20.60;99.90;;;;;;5025166;28;20029;-64
2023/08/28 05:45:38;;;;;;;0.00;0.00;;;20.70;99.90;;;;;;5019455;28;20029;-64
2023/08/28 05:48:04;;;;;;;0.00;0.00;;;20.90;99.90;;;;;;5019251;28;20024;-65
2023/08/28 05:50:30;;;;;;;;;;;20.90;99.90;;;;;;5020782;28;20729;-65
2023/08/28 05:52:56;;;;;;;0.00;0.00;;;21.10;99.90;;;;;;5027823;28;19908;-65
2023/08/28 05:55:22;;;;;;;0.00;0.00;;;21.10;99.90;;;;;;5020694;28;20017;-65
2023/08/28 05:57:48;;;;;;;0.00;0.00;;;21.20;99.90;;;;;;5022539;28;20045;-64
2023/08/28 06:00:14;;;;;;;0.00;0.00;;;21.20;99.90;;;;;;5017678;28;21292;-64
2023/08/28 06:02:40;;;;;;;;;;;21.20;99.90;;;;;;5021490;28;20033;-65
2023/08/28 06:05:06;;;;;;;0.00;0.00;;;21.10;99.90;;;;;;5017725;28;20574;-64
2023/08/28 06:07:32;;;;;;;0.00;0.00;;;21.10;99.90;;;;;;5018550;28;20036;-65
2023/08/28 06:09:57;;;;;;;0.00;0.00;;;21.10;99.90;;;;;;5023574;28;20037;-64
2023/08/28 06:12:24;;;;;;;0.00;0.00;;;21.10;99.90;;;;;;5014758;28;20147;-64
2023/08/28 06:14:51;;;;;;;0.00;0.00;;;21.10;99.90;;;;;;5016705;28;20029;-65
2023/08/28 06:17:16;;;;;;;;;;;21.20;99.90;;;;;;5019235;28;20033;-65
2023/08/28 06:19:42;;;;;;;0.00;0.00;;;21.20;99.90;;;;;;5020246;28;19958;-64
2023/08/28 06:22:07;;;;;;;0.00;0.00;;;21.30;99.90;;;;;;5018337;28;20109;-63
2023/08/28 06:24:33;;;;;;;0.70;0.25;;;21.30;99.90;;;;;;5019406;28;20033;-64
2023/08/28 06:26:59;;;;;;;0.00;0.00;;;21.30;99.90;;;;;;5022140;28;20025;-64
2023/08/28 06:29:24;;;;;;;0.00;0.00;;;21.30;99.90;;;;;;5017310;28;20632;-65
2023/08/28 06:31:51;;;;;;;0.00;0.00;;;21.30;99.90;;;;;;5020614;28;20052;-66
2023/08/28 06:34:16;;;;;;;;;;;21.30;99.90;;;;;;5022819;28;20044;-65
2023/08/28 06:36:42;;;;;;;0.00;0.00;;;21.30;99.90;;;;;;5025204;28;20378;-64
2023/08/28 06:39:08;;;;;;;0.00;0.00;;;21.30;99.90;;;;;;5021455;28;20131;-65
2023/08/28 06:41:34;;;;;;;0.00;0.00;;;21.30;99.90;;;;;;5022905;28;20033;-64
2023/08/28 06:44:04;;;;;;;0.00;0.00;;;21.50;99.90;;;;;;5026757;28;20144;-65
2023/08/28 06:46:30;;;;;;;0.00;0.00;;;21.40;99.90;;;;;;5019911;28;20047;-64
2023/08/28 06:48:56;;;;;;;0.00;0.00;;;21.40;99.90;;;;;;5019772;28;20473;-64
2023/08/28 06:51:22;;;;;;;0.00;0.00;;;21.50;99.90;;;;;;5018795;28;20079;-64
2023/08/28 06:53:50;;;;;;;;;;;21.50;99.90;;;;;;5019525;28;20029;-64
2023/08/28 06:56:16;;;;;;;0.00;0.00;;;21.50;99.90;;;;;;5018100;28;19971;-64
2023/08/28 06:58:42;;;;;;;0.00;0.00;;;21.50;99.90;;;;;;5020449;28;20380;-65
2023/08/28 07:01:07;;;;;;;0.00;0.00;;;21.60;99.90;;;;;;5017745;28;20083;-64
2023/08/28 07:03:33;;;;;;;0.00;0.00;;;21.60;99.90;;;;;;5018432;28;20108;-64
2023/08/28 07:05:59;;;;;;;0.00;0.00;;;21.60;99.90;;;;;;5018517;28;20068;-66
2023/08/28 07:08:25;;;;;;;0.00;0.00;;;21.60;99.90;;;;;;5013852;28;20026;-65
2023/08/28 07:10:50;;;;;;;0.00;0.00;;;21.70;99.90;;;;;;5018783;28;20129;-65
2023/08/28 07:13:16;;;;;;;0.00;0.00;;;21.80;99.90;;;;;;5020526;28;20025;-65
2023/08/28 07:15:42;;;;;;;0.00;0.00;;;21.90;99.90;;;;;;5021634;28;20025;-64
2023/08/28 07:18:08;;;;;;;0.00;0.00;;;21.70;99.90;;;;;;5017481;28;20017;-64
2023/08/28 07:20:34;;;;;;;0.10;0.10;;;21.90;99.90;;;;;;5016856;28;20440;-65
2023/08/28 07:23:00;;;;;;;0.00;0.00;;;22.20;99.90;;;;;;5022093;28;20017;-64
2023/08/28 07:25:27;;;;;;;;;;;22.40;99.90;;;;;;5024657;28;20021;-64
2023/08/28 07:27:54;;;;;;;0.00;0.00;;;22.30;99.90;;;;;;5021193;28;19909;-64
2023/08/28 07:30:20;;;;;;;0.00;0.00;;;22.50;99.90;;;;;;5024895;28;20060;-66
2023/08/28 07:32:46;;;;;;;;;;;22.60;99.90;;;;;;5029529;28;20029;-64
2023/08/28 07:35:11;;;;;;;0.00;0.00;;;22.30;99.90;;;;;;5024067;28;19905;-64
2023/08/28 07:37:37;;;;;;;0.00;0.00;;;22.40;99.90;;;;;;5022003;28;20021;-65
2023/08/28 07:40:04;;;;;;;0.00;0.00;;;22.30;99.90;;;;;;5031389;28;20024;-66
2023/08/28 07:42:30;;;;;;;0.00;0.00;;;22.20;99.90;;;;;;5028219;28;21503;-63
2023/08/28 07:44:56;;;;;;;0.00;0.00;;;22.20;99.90;;;;;;5025163;28;20128;-63
2023/08/28 07:47:21;;;;;;;0.00;0.00;;;22.30;99.90;;;;;;5027553;28;20025;-66
2023/08/28 07:49:47;;;;;;;0.00;0.00;;;22.30;99.90;;;;;;5023862;28;20025;-64
2023/08/28 07:52:13;;;;;;;0.00;0.00;;;22.20;99.90;;;;;;5025006;28;20920;-65
2023/08/28 07:54:38;;;;;;;0.00;0.00;;;22.00;99.90;;;;;;5032014;28;20025;-64
2023/08/28 07:57:04;;;;;;;0.00;0.00;;;22.10;99.90;;;;;;5028003;28;20495;-65
2023/08/28 07:59:31;;;;;;;0.00;0.00;;;22.30;99.90;;;;;;5024203;28;20539;-64
2023/08/28 08:01:59;;;;;;;0.00;0.00;;;22.60;99.90;;;;;;5026291;28;20744;-63
2023/08/28 08:04:26;;;;;;;0.00;0.00;;;22.90;99.90;;;;;;5023511;28;20360;-64
2023/08/28 08:06:52;;;;;;;0.20;0.00;;;22.90;99.90;;;;;;5029967;28;20029;-65
2023/08/28 08:09:18;;;;;;;0.00;0.00;;;23.30;99.90;;;;;;5022743;28;20033;-64
2023/08/28 08:11:44;;;;;;;0.00;0.00;;;23.20;99.90;;;;;;5024312;28;21396;-65
2023/08/28 08:14:09;;;;;;;0.00;0.00;;;23.50;99.90;;;;;;5027978;28;20025;-64
2023/08/28 08:16:35;;;;;;;0.00;0.00;;;24.10;99.90;;;;;;5031006;28;20825;-65
2023/08/28 08:19:01;;;;;;;;;;;24.50;99.90;;;;;;5024203;28;20383;-65
2023/08/28 08:21:26;;;;;;;0.00;0.00;;;24.90;99.90;;;;;;5023600;28;20344;-66
2023/08/28 08:23:52;;;;;;;;;;;24.80;99.90;;;;;;5022996;28;20021;-65
2023/08/28 08:26:19;;;;;;;0.00;0.00;;;24.60;99.90;;;;;;5024964;28;19905;-66
2023/08/28 08:28:45;;;;;;;0.00;0.00;;;24.70;99.90;;;;;;5023079;28;20517;-64
2023/08/28 08:31:10;;;;;;;0.00;0.00;;;24.50;99.90;;;;;;5020243;28;20024;-66
2023/08/28 08:33:36;;;;;;;;;;;25.10;99.90;;;;;;5024100;28;20017;-64
2023/08/28 08:36:01;;;;;;;0.00;0.00;;;25.10;99.90;;;;;;5019556;28;19959;-65
2023/08/28 08:38:27;;;;;;;;;;;25.60;99.90;;;;;;5020639;28;20032;-64
2023/08/28 08:40:58;;;;;;;0.00;0.00;;;26.30;99.50;;;;;;5021538;28;19927;-66
2023/08/28 08:43:25;;;;;;;0.00;0.00;;;26.30;99.00;;;;;;5021736;28;20476;-67
2023/08/28 08:46:00;;;;;;;0.00;0.00;;;28.60;98.00;;;;;;5021339;28;20025;-66
2023/08/28 08:48:27;;;;;;;0.00;0.00;;;30.30;94.40;;;;;;5021003;28;20080;-67
2023/08/28 08:51:01;;;;;;;0.10;0.10;;;31.40;92.50;;;;;;5021637;28;20076;-67
2023/08/28 08:53:40;;;;;;;0.00;0.00;;;30.00;91.60;;;;;;5020478;28;20053;-67
2023/08/28 08:56:09;;;;;;;0.00;0.00;;;29.50;92.40;;;;;;5021036;28;20029;-66
2023/08/28 08:58:35;;;;;;;0.00;0.00;;;27.70;93.70;;;;;;5021267;28;20024;-66
2023/08/28 09:01:04;;;;;;;0.03;0.03;;;26.40;94.70;;;;;;5023197;28;20171;-67
2023/08/28 09:03:30;;;;;;;0.00;0.00;;;24.90;96.80;;;;;;5016693;28;20018;-66
2023/08/28 09:05:55;;;;;;;;;;;24.80;97.30;;;;;;5021963;28;20554;-68
2023/08/28 09:08:23;;;;;;;0.00;0.00;;;24.40;98.10;;;;;;5020671;28;20631;-66
2023/08/28 09:10:49;;;;;;;0.00;0.00;;;23.70;99.60;;;;;;5023086;28;20018;-67
2023/08/28 09:13:14;;;;;;;;;;;23.70;99.90;;;;;;5011717;28;20381;-66
2023/08/28 09:15:40;;;;;;;0.00;0.00;;;24.00;99.80;;;;;;5021265;28;20345;-67
2023/08/28 09:18:06;;;;;;;;;;;23.90;99.60;;;;;;5025662;28;20029;-68
2023/08/28 09:20:32;;;;;;;0.00;0.00;;;24.00;99.80;;;;;;5020269;28;19940;-65
2023/08/28 09:22:57;;;;;;;0.00;0.00;;;23.50;99.90;;;;;;5022306;28;20021;-65
2023/08/28 09:25:23;;;;;;;;;;;23.30;99.90;;;;;;5021047;28;20108;-67
2023/08/28 09:27:53;;;;;;;0.00;0.00;;;23.50;99.90;;;;;;5024773;28;19932;-66
2023/08/28 09:30:38;;;;;;;0.00;0.00;;;23.70;99.90;;;;;;5023317;28;20025;-67
2023/08/28 09:33:06;;;;;;;0.00;0.00;;;23.80;99.90;;;;;;5022056;28;20728;-65
2023/08/28 09:35:40;;;;;;;0.00;0.00;;;23.90;99.90;;;;;;5018220;28;20026;-66
2023/08/28 09:38:06;;;;;;;0.00;0.00;;;24.00;99.90;;;;;;5018972;28;20022;-66
2023/08/28 09:40:32;;;;;;;;;;;24.00;99.90;;;;;;5019309;28;20775;-66
2023/08/28 09:42:59;;;;;;;0.00;0.00;;;24.00;99.90;;;;;;5018301;28;20372;-66
2023/08/28 09:45:33;;;;;;;0.00;0.00;;;24.00;99.90;;;;;;5018556;28;20060;-67
2023/08/28 09:48:02;;;;;;;0.00;0.00;;;23.90;99.90;;;;;;5014629;28;20127;-67
2023/08/28 09:50:29;;;;;;;0.00;0.00;;;24.00;99.90;;;;;;5017402;28;20053;-66
2023/08/28 09:53:04;;;;;;;0.00;0.00;;;24.00;99.90;;;;;;5015354;28;20018;-67
2023/08/28 09:55:30;;;;;;;0.00;0.00;;;24.00;99.90;;;;;;5019053;28;20026;-67
2023/08/28 09:57:55;;;;;;;0.00;0.00;;;24.10;99.90;;;;;;5019250;28;20464;-68
2023/08/28 10:00:21;;;;;;;;;;;23.70;99.90;;;;;;5023542;28;20048;-66
2023/08/28 10:02:47;;;;;;;0.00;0.00;;;24.00;99.90;;;;;;5013735;28;19905;-66
2023/08/28 10:05:15;;;;;;;0.10;0.10;;;24.30;99.90;;;;;;5020206;28;20032;-65
2023/08/28 10:07:44;;;;;;;0.00;0.00;;;24.40;99.90;;;;;;5019577;28;20040;-66
2023/08/28 10:10:15;;;;;;;0.00;0.00;;;24.50;99.90;;;;;;5020988;28;20029;-67
2023/08/28 10:12:44;;;;;;;0.00;0.00;;;24.20;99.90;;;;;;5008938;28;20026;-66
2023/08/28 10:15:11;;;;;;;0.00;0.00;;;24.20;99.90;;;;;;5017192;28;20064;-65
2023/08/28 10:17:39;;;;;;;0.00;0.00;;;24.50;99.90;;;;;;5017368;28;20463;-66
2023/08/28 10:20:09;;;;;;;0.13;0.00;;;24.70;99.80;;;;;;5015184;28;20501;-66
2023/08/28 10:22:36;;;;;;;0.00;0.00;;;24.70;99.60;;;;;;5016790;28;20021;-66
2023/08/28 10:25:02;;;;;;;0.00;0.00;;;24.90;99.30;;;;;;5017544;28;20064;-66
2023/08/28 10:27:29;;;;;;;0.00;0.00;;;25.10;99.30;;;;;;5015843;28;20036;-66
2023/08/28 10:29:56;;;;;;;0.00;0.00;;;24.90;98.90;;;;;;5021142;28;20108;-67
2023/08/28 10:32:22;;;;;;;0.00;0.00;;;24.10;99.90;;;;;;5014556;28;20067;-67
2023/08/28 10:34:51;;;;;;;0.00;0.00;;;23.90;99.90;;;;;;5015920;28;20034;-65
2023/08/28 10:37:17;;;;;;;0.08;0.08;;;23.40;99.90;;;;;;5015486;28;20504;-66
2023/08/28 10:39:43;;;;;;;0.00;0.00;;;23.20;99.90;;;;;;5015999;28;20112;-66
2023/08/28 10:42:18;;;;;;;0.00;0.00;;;23.70;99.90;;;;;;5016028;28;20563;-67
2023/08/28 10:44:46;;;;;;;0.00;0.00;;;24.20;99.90;;;;;;5017141;28;20037;-66
2023/08/28 10:47:16;;;;;;;0.10;0.10;;;24.40;99.90;;;;;;5017128;28;20693;-66
2023/08/28 10:49:41;;;;;;;0.00;0.00;;;24.50;99.90;;;;;;5015533;28;20471;-67
2023/08/28 10:52:07;;;;;;;0.00;0.00;;;24.60;99.60;;;;;;5019314;28;20018;-67
2023/08/28 10:54:39;;;;;;;;;;;24.70;99.60;;;;;;5011182;28;20053;-68
2023/08/28 10:57:10;;;;;;;0.00;0.00;;;24.80;99.20;;;;;;5018925;28;19908;-68
2023/08/28 10:59:45;;;;;;;0.00;0.00;;;24.80;99.50;;;;;;5021325;28;20079;-68
2023/08/28 11:02:12;;;;;;;0.03;0.03;;;24.70;99.60;;;;;;5015309;28;20026;-68
2023/08/28 11:04:42;;;;;;;0.00;0.00;;;25.00;99.20;;;;;;5017878;28;20096;-68
2023/08/28 11:07:22;;;;;;;0.00;0.00;;;24.80;99.80;;;;;;5015611;28;20025;-67
2023/08/28 11:09:50;;;;;;;0.00;0.00;;;24.20;99.90;;;;;;5017193;28;20126;-67
2023/08/28 11:12:18;;;;;;;0.00;0.00;;;24.00;99.90;;;;;;5013431;28;20057;-67
2023/08/28 11:15:05;;;;;;;0.00;0.00;;;24.30;99.90;;;;;;5016642;28;20041;-67
2023/08/28 11:17:31;;;;;;;0.00;0.00;;;24.90;99.90;;;;;;5011226;28;20163;-65
2023/08/28 11:19:57;;;;;;;0.45;0.10;;;25.50;98.90;;;;;;5011074;28;20527;-64
2023/08/28 11:22:29;;;;;;;;;;;25.40;98.90;;;;;;5002857;28;20478;-63
2023/08/28 11:24:55;;;;;;;0.00;0.00;;;25.20;99.10;;;;;;4996375;28;20487;-64
2023/08/28 11:27:53;;;;;;;0.00;0.00;;;25.20;99.00;;;;;;4996066;28;20022;-65
2023/08/28 11:30:20;;;;;;;0.00;0.00;;;24.70;99.70;;;;;;4998740;28;20565;-66
2023/08/28 11:32:51;;;;;;;0.00;0.00;;;25.30;99.50;;;;;;4993492;28;20022;-67
2023/08/28 11:35:17;;;;;;;0.00;0.00;;;26.10;98.30;;;;;;5013929;28;20022;-65
2023/08/28 11:37:49;;;;;;;0.00;0.00;;;26.80;97.20;;;;;;4995154;28;20036;-65
2023/08/28 11:40:25;;;;;;;0.00;0.00;;;27.00;97.00;;;;;;5000366;28;20073;-65
2023/08/28 11:43:08;;;;;;;0.17;0.17;;;26.10;97.90;;;;;;4993100;28;20745;-66
2023/08/28 11:45:33;;;;;;;0.38;0.20;;;25.90;97.80;;;;;;4994971;28;20481;-66
2023/08/28 11:48:00;;;;;;;;;;;25.70;98.00;;;;;;5000474;28;20065;-66
2023/08/28 11:50:27;;;;;;;0.00;0.00;;;25.60;98.90;;;;;;4993946;28;19905;-65
2023/08/28 11:52:53;;;;;;;0.00;0.00;;;25.30;99.00;;;;;;5014307;28;20030;-67
2023/08/28 11:55:19;;;;;;;;;;;25.20;99.20;;;;;;4999162;28;20036;-66
2023/08/28 11:57:45;;;;;;;0.00;0.00;;;25.60;98.90;;;;;;4997753;28;20495;-65
2023/08/28 12:00:16;;;;;;;;;;;25.70;98.60;;;;;;5014258;28;20543;-73
2023/08/28 12:02:46;;;;;;;0.22;0.22;;;25.40;99.20;;;;;;4998762;28;20027;-73
2023/08/28 12:05:15;;;;;;;0.00;0.00;;;25.10;99.70;;;;;;5018202;28;20071;-72
2023/08/28 12:07:43;;;;;;;0.00;0.00;;;24.50;99.90;;;;;;4998820;28;20030;-71
2023/08/28 12:10:09;;;;;;;0.00;0.00;;;24.50;99.90;;;;;;4997471;28;20537;-71
2023/08/28 12:12:36;;;;;;;0.15;0.15;;;25.00;99.90;;;;;;5001309;28;20030;-71
2023/08/28 12:15:03;;;;;;;0.00;0.00;;;25.70;99.70;;;;;;4999446;28;20053;-72
2023/08/28 12:17:29;;;;;;;0.00;0.00;;;25.60;99.50;;;;;;5001613;28;20535;-71
2023/08/28 12:19:55;;;;;;;0.00;0.00;;;25.20;99.90;;;;;;5020851;28;20179;-72
2023/08/28 12:22:21;;;;;;;;;;;25.20;99.90;;;;;;4998303;28;20117;-71
2023/08/28 12:24:48;;;;;;;0.00;0.00;;;25.40;99.90;;;;;;5016707;28;19909;-72
2023/08/28 12:27:16;;;;;;;0.00;0.00;;;25.30;99.90;;;;;;5005854;28;20030;-72
2023/08/28 12:29:42;;;;;;;0.00;0.00;;;25.50;99.80;;;;;;5014557;28;20125;-71
2023/08/28 12:32:15;;;;;;;0.10;0.00;;;25.90;99.40;;;;;;5006694;28;20052;-73
2023/08/28 12:34:41;;;;;;;0.00;0.00;;;26.10;99.10;;;;;;5000409;28;20029;-71
2023/08/28 12:37:07;;;;;;;;;;;26.10;99.00;;;;;;5001686;28;20436;-71
2023/08/28 12:39:34;;;;;;;0.00;0.00;;;25.60;99.20;;;;;;5004324;28;19905;-71
2023/08/28 12:42:00;;;;;;;0.00;0.00;;;25.90;99.50;;;;;;5006836;28;20037;-71
2023/08/28 12:44:27;;;;;;;0.00;0.00;;;25.60;99.30;;;;;;5019744;28;20084;-72
2023/08/28 12:46:54;;;;;;;0.00;0.00;;;25.10;99.90;;;;;;5018400;28;20032;-72
2023/08/28 12:49:20;;;;;;;0.03;0.00;;;25.60;99.90;;;;;;5007495;28;20536;-72
2023/08/28 12:51:46;;;;;;;0.00;0.00;;;26.00;99.40;;;;;;4997518;28;20124;-72
2023/08/28 12:54:13;;;;;;;0.17;0.17;;;26.30;98.90;;;;;;5021220;28;20504;-72